TimeEDT,TemperatureF,Dew PointF,Humidity,Sea Level PressureIn,VisibilityMPH,Wind Direction,Wind SpeedMPH,Gust SpeedMPH,PrecipitationIn,Events,Conditions,WindDirDegrees,DateUTC
12:53 AM,24.8,24.8,100,-9999,0.0,West,51.8,57.5,N/A,Fog,Light Freezing Fog,280,2012-10-07 04:53:00
1:54 AM,24.8,24.8,100,-9999,0.0,WNW,54.1,-,N/A,Fog,Light Freezing Fog,290,2012-10-07 05:54:00
2:47 AM,24.8,24.8,100,-9999,0.1,West,51.8,57.5,N/A,Fog,Light Freezing Fog,280,2012-10-07 06:47:00
3:47 AM,24.8,24.8,100,-9999,0.1,WNW,46.0,-,N/A,Fog,Light Freezing Fog,290,2012-10-07 07:47:00
4:52 AM,24.8,24.8,100,-9999,0.0,WNW,34.5,-,N/A,Fog,Light Freezing Fog,290,2012-10-07 08:52:00
5:48 AM,23.0,23.0,100,-9999,0.1,WNW,39.1,-,N/A,Fog,Light Freezing Fog,290,2012-10-07 09:48:00
6:51 AM,23.0,23.0,100,-9999,0.1,WNW,36.8,46.0,N/A,Fog,Light Freezing Fog,290,2012-10-07 10:51:00
7:54 AM,23.0,21.2,93,-9999,80.0,West,34.5,-,N/A,,Mostly Cloudy,280,2012-10-07 11:54:00
8:55 AM,24.8,17.6,74,-9999,90.0,West,28.8,-,N/A,,Overcast,280,2012-10-07 12:55:00
9:54 AM,33.8,6.8,32,-9999,80.0,SW,12.7,43.7,N/A,,Overcast,220,2012-10-07 13:54:00
10:56 AM,30.2,21.2,69,-9999,70.0,SW,12.7,26.5,N/A,,Overcast,230,2012-10-07 14:56:00
11:53 AM,28.4,28.4,100,-9999,0.1,SSW,6.9,-,N/A,Fog,Light Freezing Fog,210,2012-10-07 15:53:00
12:48 PM,28.4,28.4,100,-9999,0.1,WSW,10.4,-,N/A,Fog,Light Freezing Fog,240,2012-10-07 16:48:00
1:50 PM,28.4,28.4,100,-9999,0.1,SW,9.2,-,N/A,Fog,Light Freezing Fog,230,2012-10-07 17:50:00
2:54 PM,28.4,28.4,100,-9999,0.1,SW,13.8,-,N/A,Fog,Light Freezing Fog,220,2012-10-07 18:54:00
3:52 PM,28.4,28.4,100,-9999,0.1,WSW,13.8,-,N/A,Fog,Light Freezing Fog,240,2012-10-07 19:52:00
4:54 PM,26.6,26.6,100,-9999,0.1,West,15.0,-,N/A,Fog,Light Freezing Fog,270,2012-10-07 20:54:00
5:49 PM,24.8,24.8,100,-9999,0.1,West,27.6,-,N/A,Fog,Light Freezing Fog,280,2012-10-07 21:49:00
6:49 PM,24.8,24.8,100,-9999,0.1,West,26.5,-,N/A,Fog,Light Freezing Fog,280,2012-10-07 22:49:00
7:50 PM,24.8,24.8,100,-9999,0.2,West,16.1,-,N/A,Fog,Light Freezing Fog,280,2012-10-07 23:50:00
8:54 PM,26.6,23.0,86,-9999,110.0,West,24.2,-,N/A,,Overcast,280,2012-10-08 00:54:00
9:55 PM,26.6,26.6,100,-9999,0.1,West,24.2,-,N/A,Fog-Snow,Light Snow,280,2012-10-08 01:55:00
10:54 PM,24.8,24.8,100,-9999,0.1,West,18.4,-,N/A,Fog-Snow,Snow,280,2012-10-08 02:54:00
11:55 PM,24.8,24.8,100,-9999,0.1,West,17.3,-,N/A,Fog-Snow,Light Snow,280,2012-10-08 03:55:00